Millville, Minnesota
Current Conditions -  °F | °C
As of 6:33 PM on Saturday 20 Dec 2014 (Local Time) from K9MN Reporting Station
Overcast Overcast  
Wind Chill: 24°   Ceiling: 900
Heat Index: 31°   Visibility: 7mi
Dew Point: 29°   Wind: 7mph
Humidity: 90%   Direction: 160°SSE
Pressure: 30.13"   Gusts: NA
Location:  44.24°N, 92.3°W
Report Text: K9MN 210033Z AUTO 16006KT 7SM OVC009 00/M02 A3013 RMK AO1 T10051019
Loading
Personal Weather Stations






























Interactive Weather Map New forecast layout! Learn more

10-Day Weather Forecast

Advertisements
Track Severe Weather on mobile